sensor_id;sensor_type;location;lat;lon;timestamp;temperature;humidity
21544;DHT22;10933;50.754;11.508;2022-07-24T00:00:38;15.20;99.90
21544;DHT22;10933;50.754;11.508;2022-07-24T00:03:04;15.10;99.90
21544;DHT22;10933;50.754;11.508;2022-07-24T00:05:31;15.00;99.90
21544;DHT22;10933;50.754;11.508;2022-07-24T00:07:57;14.80;99.90
21544;DHT22;10933;50.754;11.508;2022-07-24T00:10:23;14.80;99.90
21544;DHT22;10933;50.754;11.508;2022-07-24T00:12:49;14.70;99.90
21544;DHT22;10933;50.754;11.508;2022-07-24T00:15:15;14.80;99.90
21544;DHT22;10933;50.754;11.508;2022-07-24T00:17:41;14.80;99.90
21544;DHT22;10933;50.754;11.508;2022-07-24T00:20:08;14.50;99.90
21544;DHT22;10933;50.754;11.508;2022-07-24T00:22:34;14.50;99.90
21544;DHT22;10933;50.754;11.508;2022-07-24T00:25:00;14.50;99.90
21544;DHT22;10933;50.754;11.508;2022-07-24T00:27:26;14.40;99.90
21544;DHT22;10933;50.754;11.508;2022-07-24T00:29:52;14.40;99.90
21544;DHT22;10933;50.754;11.508;2022-07-24T00:32:18;14.30;99.90
21544;DHT22;10933;50.754;11.508;2022-07-24T00:34:43;15.30;99.90
21544;DHT22;10933;50.754;11.508;2022-07-24T00:37:09;14.30;99.90
21544;DHT22;10933;50.754;11.508;2022-07-24T00:39:35;14.30;99.90
21544;DHT22;10933;50.754;11.508;2022-07-24T00:42:01;14.30;99.90
21544;DHT22;10933;50.754;11.508;2022-07-24T00:44:26;14.30;99.90
21544;DHT22;10933;50.754;11.508;2022-07-24T00:46:52;14.30;99.90
21544;DHT22;10933;50.754;11.508;2022-07-24T00:49:19;14.30;99.90
21544;DHT22;10933;50.754;11.508;2022-07-24T00:51:49;14.30;99.90
21544;DHT22;10933;50.754;11.508;2022-07-24T00:54:18;14.20;99.90
21544;DHT22;10933;50.754;11.508;2022-07-24T00:56:47;14.20;99.90
21544;DHT22;10933;50.754;11.508;2022-07-24T00:59:14;14.20;99.90
21544;DHT22;10933;50.754;11.508;2022-07-24T01:01:41;14.20;99.90
21544;DHT22;10933;50.754;11.508;2022-07-24T01:04:08;14.20;99.90
21544;DHT22;10933;50.754;11.508;2022-07-24T01:06:33;14.10;99.90
21544;DHT22;10933;50.754;11.508;2022-07-24T01:08:59;14.00;99.90
21544;DHT22;10933;50.754;11.508;2022-07-24T01:11:26;13.90;99.90
21544;DHT22;10933;50.754;11.508;2022-07-24T01:13:52;13.80;99.90
21544;DHT22;10933;50.754;11.508;2022-07-24T01:16:18;13.60;99.90
21544;DHT22;10933;50.754;11.508;2022-07-24T01:18:44;13.70;99.90
21544;DHT22;10933;50.754;11.508;2022-07-24T01:21:10;13.60;99.90
21544;DHT22;10933;50.754;11.508;2022-07-24T01:23:36;13.60;99.90
21544;DHT22;10933;50.754;11.508;2022-07-24T01:26:02;13.60;99.90
21544;DHT22;10933;50.754;11.508;2022-07-24T01:28:31;13.60;99.90
21544;DHT22;10933;50.754;11.508;2022-07-24T01:30:56;13.60;99.90
21544;DHT22;10933;50.754;11.508;2022-07-24T01:33:22;13.50;99.90
21544;DHT22;10933;50.754;11.508;2022-07-24T01:35:48;13.40;99.90
21544;DHT22;10933;50.754;11.508;2022-07-24T01:38:13;13.40;99.90
21544;DHT22;10933;50.754;11.508;2022-07-24T01:40:40;13.30;99.90
21544;DHT22;10933;50.754;11.508;2022-07-24T01:43:06;13.40;99.90
21544;DHT22;10933;50.754;11.508;2022-07-24T01:45:32;13.20;99.90
21544;DHT22;10933;50.754;11.508;2022-07-24T01:47:58;13.30;99.90
21544;DHT22;10933;50.754;11.508;2022-07-24T01:50:24;13.20;99.90
21544;DHT22;10933;50.754;11.508;2022-07-24T01:52:51;13.30;99.90
21544;DHT22;10933;50.754;11.508;2022-07-24T01:55:19;13.40;99.90
21544;DHT22;10933;50.754;11.508;2022-07-24T01:57:45;13.50;99.90
21544;DHT22;10933;50.754;11.508;2022-07-24T02:00:11;13.50;99.90
21544;DHT22;10933;50.754;11.508;2022-07-24T02:02:39;13.50;99.90
21544;DHT22;10933;50.754;11.508;2022-07-24T02:05:07;13.40;99.90
21544;DHT22;10933;50.754;11.508;2022-07-24T02:07:33;13.40;99.90
21544;DHT22;10933;50.754;11.508;2022-07-24T02:10:00;13.40;99.90
21544;DHT22;10933;50.754;11.508;2022-07-24T02:12:26;13.10;99.90
21544;DHT22;10933;50.754;11.508;2022-07-24T02:14:52;13.10;99.90
21544;DHT22;10933;50.754;11.508;2022-07-24T02:17:17;13.00;99.90
21544;DHT22;10933;50.754;11.508;2022-07-24T02:19:43;13.10;99.90
21544;DHT22;10933;50.754;11.508;2022-07-24T02:22:09;13.00;99.90
21544;DHT22;10933;50.754;11.508;2022-07-24T02:24:35;13.00;99.90
21544;DHT22;10933;50.754;11.508;2022-07-24T02:27:01;13.00;99.90
21544;DHT22;10933;50.754;11.508;2022-07-24T02:29:26;13.00;99.90
21544;DHT22;10933;50.754;11.508;2022-07-24T02:31:52;13.00;99.90
21544;DHT22;10933;50.754;11.508;2022-07-24T02:34:18;13.00;99.90
21544;DHT22;10933;50.754;11.508;2022-07-24T02:36:44;13.10;99.90
21544;DHT22;10933;50.754;11.508;2022-07-24T02:39:10;12.90;99.90
21544;DHT22;10933;50.754;11.508;2022-07-24T02:41:35;12.90;99.90
21544;DHT22;10933;50.754;11.508;2022-07-24T02:44:02;13.00;99.90
21544;DHT22;10933;50.754;11.508;2022-07-24T02:46:27;13.10;99.90
21544;DHT22;10933;50.754;11.508;2022-07-24T02:48:53;12.90;99.90
21544;DHT22;10933;50.754;11.508;2022-07-24T02:51:19;12.80;99.90
21544;DHT22;10933;50.754;11.508;2022-07-24T02:53:44;14.10;99.90
21544;DHT22;10933;50.754;11.508;2022-07-24T02:56:10;12.70;99.90
21544;DHT22;10933;50.754;11.508;2022-07-24T02:58:36;12.80;99.90
21544;DHT22;10933;50.754;11.508;2022-07-24T03:01:02;12.70;99.90
21544;DHT22;10933;50.754;11.508;2022-07-24T03:03:28;12.70;99.90
21544;DHT22;10933;50.754;11.508;2022-07-24T03:05:53;12.70;99.90
21544;DHT22;10933;50.754;11.508;2022-07-24T03:08:19;12.50;99.90
21544;DHT22;10933;50.754;11.508;2022-07-24T03:10:45;12.30;99.90
21544;DHT22;10933;50.754;11.508;2022-07-24T03:13:11;12.30;99.90
21544;DHT22;10933;50.754;11.508;2022-07-24T03:15:37;12.40;99.90
21544;DHT22;10933;50.754;11.508;2022-07-24T03:18:03;12.40;99.90
21544;DHT22;10933;50.754;11.508;2022-07-24T03:20:29;12.40;99.90
21544;DHT22;10933;50.754;11.508;2022-07-24T03:22:56;12.40;99.90
21544;DHT22;10933;50.754;11.508;2022-07-24T03:25:23;12.50;99.90
21544;DHT22;10933;50.754;11.508;2022-07-24T03:27:49;12.50;99.90
21544;DHT22;10933;50.754;11.508;2022-07-24T03:30:16;12.50;99.90
21544;DHT22;10933;50.754;11.508;2022-07-24T03:32:43;12.50;99.90
21544;DHT22;10933;50.754;11.508;2022-07-24T03:35:09;13.80;99.90
21544;DHT22;10933;50.754;11.508;2022-07-24T03:37:35;12.50;99.90
21544;DHT22;10933;50.754;11.508;2022-07-24T03:40:01;12.50;99.90
21544;DHT22;10933;50.754;11.508;2022-07-24T03:42:27;12.50;99.90
21544;DHT22;10933;50.754;11.508;2022-07-24T03:44:53;12.60;99.90
21544;DHT22;10933;50.754;11.508;2022-07-24T03:47:19;12.60;99.90
21544;DHT22;10933;50.754;11.508;2022-07-24T03:49:45;12.60;99.90
21544;DHT22;10933;50.754;11.508;2022-07-24T03:52:11;12.50;99.90
21544;DHT22;10933;50.754;11.508;2022-07-24T03:54:36;12.40;99.90
21544;DHT22;10933;50.754;11.508;2022-07-24T03:57:02;12.40;99.90
21544;DHT22;10933;50.754;11.508;2022-07-24T03:59:28;12.50;99.90
21544;DHT22;10933;50.754;11.508;2022-07-24T04:01:54;12.60;99.90
21544;DHT22;10933;50.754;11.508;2022-07-24T04:04:20;12.60;99.90
21544;DHT22;10933;50.754;11.508;2022-07-24T04:06:45;12.70;99.90
21544;DHT22;10933;50.754;11.508;2022-07-24T04:09:11;12.70;99.90
21544;DHT22;10933;50.754;11.508;2022-07-24T04:11:38;12.70;99.90
21544;DHT22;10933;50.754;11.508;2022-07-24T04:14:04;12.80;99.90
21544;DHT22;10933;50.754;11.508;2022-07-24T04:16:30;12.90;99.90
21544;DHT22;10933;50.754;11.508;2022-07-24T04:18:56;12.70;99.90
21544;DHT22;10933;50.754;11.508;2022-07-24T04:21:22;13.00;99.90
21544;DHT22;10933;50.754;11.508;2022-07-24T04:23:48;13.00;99.90
21544;DHT22;10933;50.754;11.508;2022-07-24T04:26:13;13.00;99.90
21544;DHT22;10933;50.754;11.508;2022-07-24T04:28:39;13.10;99.90
21544;DHT22;10933;50.754;11.508;2022-07-24T04:31:07;13.30;99.90
21544;DHT22;10933;50.754;11.508;2022-07-24T04:33:33;13.20;99.90
21544;DHT22;10933;50.754;11.508;2022-07-24T04:35:59;13.60;99.90
21544;DHT22;10933;50.754;11.508;2022-07-24T04:38:25;15.40;99.90
21544;DHT22;10933;50.754;11.508;2022-07-24T04:40:51;14.00;99.90
21544;DHT22;10933;50.754;11.508;2022-07-24T04:43:17;14.20;99.90
21544;DHT22;10933;50.754;11.508;2022-07-24T04:45:43;14.30;99.90
21544;DHT22;10933;50.754;11.508;2022-07-24T04:48:09;14.10;99.90
21544;DHT22;10933;50.754;11.508;2022-07-24T04:50:35;14.60;99.90
21544;DHT22;10933;50.754;11.508;2022-07-24T04:53:01;15.60;99.90
21544;DHT22;10933;50.754;11.508;2022-07-24T04:55:26;14.80;99.90
21544;DHT22;10933;50.754;11.508;2022-07-24T04:57:52;15.30;99.90
21544;DHT22;10933;50.754;11.508;2022-07-24T05:00:18;17.20;99.90
21544;DHT22;10933;50.754;11.508;2022-07-24T05:02:43;16.20;99.90
21544;DHT22;10933;50.754;11.508;2022-07-24T05:05:09;17.00;99.90
21544;DHT22;10933;50.754;11.508;2022-07-24T05:07:35;17.30;99.90
21544;DHT22;10933;50.754;11.508;2022-07-24T05:10:01;17.30;99.90
21544;DHT22;10933;50.754;11.508;2022-07-24T05:12:27;17.70;99.90
21544;DHT22;10933;50.754;11.508;2022-07-24T05:14:53;18.10;99.90
21544;DHT22;10933;50.754;11.508;2022-07-24T05:17:19;18.00;99.90
21544;DHT22;10933;50.754;11.508;2022-07-24T05:19:45;17.80;99.90
21544;DHT22;10933;50.754;11.508;2022-07-24T05:22:11;18.30;99.90
21544;DHT22;10933;50.754;11.508;2022-07-24T05:24:36;17.50;99.90
21544;DHT22;10933;50.754;11.508;2022-07-24T05:27:23;17.80;99.90
21544;DHT22;10933;50.754;11.508;2022-07-24T05:29:49;18.40;99.90
21544;DHT22;10933;50.754;11.508;2022-07-24T05:32:15;18.20;99.90
21544;DHT22;10933;50.754;11.508;2022-07-24T05:34:41;18.40;99.90
21544;DHT22;10933;50.754;11.508;2022-07-24T05:37:07;18.80;99.90
21544;DHT22;10933;50.754;11.508;2022-07-24T05:39:34;19.30;99.90
21544;DHT22;10933;50.754;11.508;2022-07-24T05:41:59;18.20;99.90
21544;DHT22;10933;50.754;11.508;2022-07-24T05:44:25;18.60;99.90
21544;DHT22;10933;50.754;11.508;2022-07-24T05:46:51;19.20;99.90
21544;DHT22;10933;50.754;11.508;2022-07-24T05:49:16;19.20;99.90
21544;DHT22;10933;50.754;11.508;2022-07-24T05:51:42;19.10;99.90
21544;DHT22;10933;50.754;11.508;2022-07-24T05:54:08;19.10;99.90
21544;DHT22;10933;50.754;11.508;2022-07-24T05:56:34;19.80;99.90
21544;DHT22;10933;50.754;11.508;2022-07-24T05:59:00;20.70;99.90
21544;DHT22;10933;50.754;11.508;2022-07-24T06:01:25;20.70;99.90
21544;DHT22;10933;50.754;11.508;2022-07-24T06:03:51;20.60;99.90
21544;DHT22;10933;50.754;11.508;2022-07-24T06:06:17;20.60;99.90
21544;DHT22;10933;50.754;11.508;2022-07-24T06:08:42;20.40;99.90
21544;DHT22;10933;50.754;11.508;2022-07-24T06:11:08;19.90;99.90
21544;DHT22;10933;50.754;11.508;2022-07-24T06:13:34;20.30;99.90
21544;DHT22;10933;50.754;11.508;2022-07-24T06:16:00;20.80;99.90
21544;DHT22;10933;50.754;11.508;2022-07-24T06:18:25;21.50;99.90
21544;DHT22;10933;50.754;11.508;2022-07-24T06:20:51;22.40;99.90
21544;DHT22;10933;50.754;11.508;2022-07-24T06:23:17;22.00;99.90
21544;DHT22;10933;50.754;11.508;2022-07-24T06:25:43;21.50;99.90
21544;DHT22;10933;50.754;11.508;2022-07-24T06:28:09;21.00;99.90
21544;DHT22;10933;50.754;11.508;2022-07-24T06:30:35;22.40;99.90
21544;DHT22;10933;50.754;11.508;2022-07-24T06:33:01;22.60;99.90
21544;DHT22;10933;50.754;11.508;2022-07-24T06:35:27;22.60;99.90
21544;DHT22;10933;50.754;11.508;2022-07-24T06:37:54;22.30;99.90
21544;DHT22;10933;50.754;11.508;2022-07-24T06:40:21;22.80;99.90
21544;DHT22;10933;50.754;11.508;2022-07-24T06:42:48;22.70;99.90
21544;DHT22;10933;50.754;11.508;2022-07-24T06:45:14;23.60;99.90
21544;DHT22;10933;50.754;11.508;2022-07-24T06:47:41;24.60;99.90
21544;DHT22;10933;50.754;11.508;2022-07-24T06:50:07;26.10;99.90
21544;DHT22;10933;50.754;11.508;2022-07-24T06:52:34;26.40;99.90
21544;DHT22;10933;50.754;11.508;2022-07-24T06:55:00;25.10;99.90
21544;DHT22;10933;50.754;11.508;2022-07-24T06:57:26;25.70;99.90
21544;DHT22;10933;50.754;11.508;2022-07-24T06:59:52;25.00;99.90
21544;DHT22;10933;50.754;11.508;2022-07-24T07:02:20;26.20;99.90
21544;DHT22;10933;50.754;11.508;2022-07-24T07:04:46;26.40;99.90
21544;DHT22;10933;50.754;11.508;2022-07-24T07:07:12;27.20;99.90
21544;DHT22;10933;50.754;11.508;2022-07-24T07:09:39;25.80;99.90
21544;DHT22;10933;50.754;11.508;2022-07-24T07:12:05;26.90;99.90
21544;DHT22;10933;50.754;11.508;2022-07-24T07:14:31;26.50;99.90
21544;DHT22;10933;50.754;11.508;2022-07-24T07:16:57;25.00;99.90
21544;DHT22;10933;50.754;11.508;2022-07-24T07:19:23;23.80;99.90
21544;DHT22;10933;50.754;11.508;2022-07-24T07:21:49;24.50;99.90
21544;DHT22;10933;50.754;11.508;2022-07-24T07:24:14;26.10;99.90
21544;DHT22;10933;50.754;11.508;2022-07-24T07:26:40;27.20;99.90
21544;DHT22;10933;50.754;11.508;2022-07-24T07:29:06;26.50;99.90
21544;DHT22;10933;50.754;11.508;2022-07-24T07:31:32;27.20;99.90
21544;DHT22;10933;50.754;11.508;2022-07-24T07:33:58;26.00;99.90
21544;DHT22;10933;50.754;11.508;2022-07-24T07:36:24;26.90;99.90
21544;DHT22;10933;50.754;11.508;2022-07-24T07:38:50;27.20;99.90
21544;DHT22;10933;50.754;11.508;2022-07-24T07:41:16;27.10;99.90
21544;DHT22;10933;50.754;11.508;2022-07-24T07:43:45;28.50;99.90
21544;DHT22;10933;50.754;11.508;2022-07-24T07:46:13;28.20;98.00
21544;DHT22;10933;50.754;11.508;2022-07-24T07:48:40;28.40;99.90
21544;DHT22;10933;50.754;11.508;2022-07-24T07:51:06;29.00;98.00
21544;DHT22;10933;50.754;11.508;2022-07-24T07:53:32;29.40;97.30
21544;DHT22;10933;50.754;11.508;2022-07-24T07:55:58;30.10;96.40
21544;DHT22;10933;50.754;11.508;2022-07-24T07:58:23;29.60;96.80
21544;DHT22;10933;50.754;11.508;2022-07-24T08:00:51;31.00;95.90
21544;DHT22;10933;50.754;11.508;2022-07-24T08:03:17;31.50;94.80
21544;DHT22;10933;50.754;11.508;2022-07-24T08:05:43;31.30;94.00
21544;DHT22;10933;50.754;11.508;2022-07-24T08:08:09;31.80;93.20
21544;DHT22;10933;50.754;11.508;2022-07-24T08:10:35;31.00;94.00
21544;DHT22;10933;50.754;11.508;2022-07-24T08:13:00;31.60;93.10
21544;DHT22;10933;50.754;11.508;2022-07-24T08:15:26;29.30;94.30
21544;DHT22;10933;50.754;11.508;2022-07-24T08:17:53;29.80;93.90
21544;DHT22;10933;50.754;11.508;2022-07-24T08:20:20;31.10;93.50
21544;DHT22;10933;50.754;11.508;2022-07-24T08:22:47;30.50;93.30
21544;DHT22;10933;50.754;11.508;2022-07-24T08:25:12;31.20;92.80
21544;DHT22;10933;50.754;11.508;2022-07-24T08:27:39;33.30;91.70
21544;DHT22;10933;50.754;11.508;2022-07-24T08:30:06;32.40;91.50
21544;DHT22;10933;50.754;11.508;2022-07-24T08:32:33;31.30;91.60
21544;DHT22;10933;50.754;11.508;2022-07-24T08:34:59;33.30;88.90
21544;DHT22;10933;50.754;11.508;2022-07-24T08:37:25;30.00;90.60
21544;DHT22;10933;50.754;11.508;2022-07-24T08:39:51;29.70;92.10
21544;DHT22;10933;50.754;11.508;2022-07-24T08:42:17;31.10;91.40
21544;DHT22;10933;50.754;11.508;2022-07-24T08:44:42;31.90;88.20
21544;DHT22;10933;50.754;11.508;2022-07-24T08:47:08;32.30;89.70
21544;DHT22;10933;50.754;11.508;2022-07-24T08:49:36;33.50;88.30
21544;DHT22;10933;50.754;11.508;2022-07-24T08:52:04;33.80;86.60
21544;DHT22;10933;50.754;11.508;2022-07-24T08:54:34;34.20;84.00
21544;DHT22;10933;50.754;11.508;2022-07-24T08:57:03;34.40;83.50
21544;DHT22;10933;50.754;11.508;2022-07-24T08:59:29;32.00;85.10
21544;DHT22;10933;50.754;11.508;2022-07-24T09:01:55;30.90;89.30
21544;DHT22;10933;50.754;11.508;2022-07-24T09:04:43;30.20;89.60
21544;DHT22;10933;50.754;11.508;2022-07-24T09:07:16;31.50;88.30
21544;DHT22;10933;50.754;11.508;2022-07-24T09:09:45;31.90;86.70
21544;DHT22;10933;50.754;11.508;2022-07-24T09:12:34;30.90;89.90
21544;DHT22;10933;50.754;11.508;2022-07-24T09:15:01;29.50;90.30
21544;DHT22;10933;50.754;11.508;2022-07-24T09:17:35;31.90;88.90
21544;DHT22;10933;50.754;11.508;2022-07-24T09:20:02;33.50;87.90
21544;DHT22;10933;50.754;11.508;2022-07-24T09:22:35;34.10;82.40
21544;DHT22;10933;50.754;11.508;2022-07-24T09:25:08;34.00;82.60
21544;DHT22;10933;50.754;11.508;2022-07-24T09:27:41;31.30;84.60
21544;DHT22;10933;50.754;11.508;2022-07-24T09:30:36;33.80;84.10
21544;DHT22;10933;50.754;11.508;2022-07-24T09:35:47;31.70;85.40
21544;DHT22;10933;50.754;11.508;2022-07-24T09:38:20;29.80;89.20
21544;DHT22;10933;50.754;11.508;2022-07-24T09:40:53;30.10;89.90
21544;DHT22;10933;50.754;11.508;2022-07-24T09:43:24;32.60;86.10
21544;DHT22;10933;50.754;11.508;2022-07-24T09:48:26;32.10;83.80
21544;DHT22;10933;50.754;11.508;2022-07-24T09:50:58;35.10;80.70
21544;DHT22;10933;50.754;11.508;2022-07-24T09:53:27;33.70;82.10
21544;DHT22;10933;50.754;11.508;2022-07-24T09:55:59;35.90;83.00
21544;DHT22;10933;50.754;11.508;2022-07-24T09:58:29;36.90;76.00
21544;DHT22;10933;50.754;11.508;2022-07-24T10:00:58;36.10;75.00
21544;DHT22;10933;50.754;11.508;2022-07-24T10:03:29;34.50;76.20
21544;DHT22;10933;50.754;11.508;2022-07-24T10:06:01;34.10;76.20
21544;DHT22;10933;50.754;11.508;2022-07-24T10:08:30;33.60;75.10
21544;DHT22;10933;50.754;11.508;2022-07-24T10:10:58;34.90;76.80
21544;DHT22;10933;50.754;11.508;2022-07-24T10:13:27;32.80;76.10
21544;DHT22;10933;50.754;11.508;2022-07-24T10:16:03;33.40;80.10
21544;DHT22;10933;50.754;11.508;2022-07-24T10:18:46;33.60;78.70
21544;DHT22;10933;50.754;11.508;2022-07-24T10:21:22;33.30;76.00
21544;DHT22;10933;50.754;11.508;2022-07-24T10:26:34;31.90;80.10
21544;DHT22;10933;50.754;11.508;2022-07-24T10:29:09;32.10;77.80
21544;DHT22;10933;50.754;11.508;2022-07-24T10:31:43;33.70;74.70
21544;DHT22;10933;50.754;11.508;2022-07-24T10:34:38;34.60;76.80
21544;DHT22;10933;50.754;11.508;2022-07-24T10:37:33;35.90;73.50
21544;DHT22;10933;50.754;11.508;2022-07-24T10:40:55;36.00;70.80
21544;DHT22;10933;50.754;11.508;2022-07-24T10:43:11;34.20;70.80
21544;DHT22;10933;50.754;11.508;2022-07-24T10:51:10;33.70;73.30
21544;DHT22;10933;50.754;11.508;2022-07-24T10:59:08;33.80;75.20
21544;DHT22;10933;50.754;11.508;2022-07-24T11:09:17;33.90;72.30
21544;DHT22;10933;50.754;11.508;2022-07-24T11:20:10;34.00;71.30
21544;DHT22;10933;50.754;11.508;2022-07-24T11:22:46;33.70;72.40
21544;DHT22;10933;50.754;11.508;2022-07-24T11:25:16;35.20;69.10
21544;DHT22;10933;50.754;11.508;2022-07-24T11:27:48;34.50;70.10
21544;DHT22;10933;50.754;11.508;2022-07-24T11:30:22;32.70;73.40
21544;DHT22;10933;50.754;11.508;2022-07-24T11:32:53;34.00;75.60
21544;DHT22;10933;50.754;11.508;2022-07-24T11:35:33;31.30;75.30
21544;DHT22;10933;50.754;11.508;2022-07-24T11:38:02;32.20;76.60
21544;DHT22;10933;50.754;11.508;2022-07-24T11:40:30;32.50;75.90
21544;DHT22;10933;50.754;11.508;2022-07-24T11:43:01;31.80;76.20
21544;DHT22;10933;50.754;11.508;2022-07-24T11:45:29;31.70;75.90
21544;DHT22;10933;50.754;11.508;2022-07-24T11:47:55;32.90;74.40
21544;DHT22;10933;50.754;11.508;2022-07-24T11:50:23;33.70;75.80
21544;DHT22;10933;50.754;11.508;2022-07-24T11:52:50;32.00;72.50
21544;DHT22;10933;50.754;11.508;2022-07-24T11:55:19;32.00;76.70
21544;DHT22;10933;50.754;11.508;2022-07-24T11:57:49;30.70;76.80
21544;DHT22;10933;50.754;11.508;2022-07-24T12:00:27;30.00;78.60
21544;DHT22;10933;50.754;11.508;2022-07-24T12:02:57;30.80;77.60
21544;DHT22;10933;50.754;11.508;2022-07-24T12:05:37;31.80;76.90
21544;DHT22;10933;50.754;11.508;2022-07-24T12:08:19;32.70;74.80
21544;DHT22;10933;50.754;11.508;2022-07-24T12:10:58;32.00;76.80
21544;DHT22;10933;50.754;11.508;2022-07-24T12:13:25;31.10;76.90
21544;DHT22;10933;50.754;11.508;2022-07-24T12:15:52;32.20;78.50
21544;DHT22;10933;50.754;11.508;2022-07-24T12:18:18;33.90;72.40
21544;DHT22;10933;50.754;11.508;2022-07-24T12:20:45;34.40;71.30
21544;DHT22;10933;50.754;11.508;2022-07-24T12:23:13;34.70;72.10
21544;DHT22;10933;50.754;11.508;2022-07-24T12:25:41;33.30;71.70
21544;DHT22;10933;50.754;11.508;2022-07-24T12:28:14;33.20;72.80
21544;DHT22;10933;50.754;11.508;2022-07-24T12:30:52;34.20;70.00
21544;DHT22;10933;50.754;11.508;2022-07-24T12:33:26;34.60;68.90
21544;DHT22;10933;50.754;11.508;2022-07-24T12:35:58;34.90;69.40
21544;DHT22;10933;50.754;11.508;2022-07-24T12:38:53;33.70;70.40
21544;DHT22;10933;50.754;11.508;2022-07-24T12:41:23;34.60;69.90
21544;DHT22;10933;50.754;11.508;2022-07-24T12:43:57;33.30;69.60
21544;DHT22;10933;50.754;11.508;2022-07-24T12:46:30;32.40;70.70
21544;DHT22;10933;50.754;11.508;2022-07-24T12:52:06;31.70;73.80
21544;DHT22;10933;50.754;11.508;2022-07-24T12:54:51;32.90;71.30
21544;DHT22;10933;50.754;11.508;2022-07-24T12:57:20;32.40;74.30
21544;DHT22;10933;50.754;11.508;2022-07-24T12:59:49;31.80;74.30
21544;DHT22;10933;50.754;11.508;2022-07-24T13:02:17;32.20;74.80
21544;DHT22;10933;50.754;11.508;2022-07-24T13:04:52;31.80;74.90
21544;DHT22;10933;50.754;11.508;2022-07-24T13:07:22;32.80;73.80
21544;DHT22;10933;50.754;11.508;2022-07-24T13:09:51;33.50;74.50
21544;DHT22;10933;50.754;11.508;2022-07-24T13:12:18;31.30;75.50
21544;DHT22;10933;50.754;11.508;2022-07-24T13:14:45;32.70;77.30
21544;DHT22;10933;50.754;11.508;2022-07-24T13:17:15;35.10;72.00
21544;DHT22;10933;50.754;11.508;2022-07-24T13:19:48;34.60;69.80
21544;DHT22;10933;50.754;11.508;2022-07-24T13:22:15;33.70;69.50
21544;DHT22;10933;50.754;11.508;2022-07-24T13:24:41;31.30;73.80
21544;DHT22;10933;50.754;11.508;2022-07-24T13:27:10;31.50;75.00
21544;DHT22;10933;50.754;11.508;2022-07-24T13:29:38;32.30;75.40
21544;DHT22;10933;50.754;11.508;2022-07-24T13:32:05;31.60;75.30
21544;DHT22;10933;50.754;11.508;2022-07-24T13:34:31;31.70;75.20
21544;DHT22;10933;50.754;11.508;2022-07-24T13:36:58;33.00;74.40
21544;DHT22;10933;50.754;11.508;2022-07-24T13:39:24;34.70;70.50
21544;DHT22;10933;50.754;11.508;2022-07-24T13:41:50;33.20;72.60
21544;DHT22;10933;50.754;11.508;2022-07-24T13:44:16;35.40;71.90
21544;DHT22;10933;50.754;11.508;2022-07-24T13:46:42;32.70;71.40
21544;DHT22;10933;50.754;11.508;2022-07-24T13:49:09;33.80;69.30
21544;DHT22;10933;50.754;11.508;2022-07-24T13:51:38;33.40;69.80
21544;DHT22;10933;50.754;11.508;2022-07-24T13:54:04;32.70;71.80
21544;DHT22;10933;50.754;11.508;2022-07-24T13:56:30;32.40;72.60
21544;DHT22;10933;50.754;11.508;2022-07-24T13:58:57;32.60;70.00
21544;DHT22;10933;50.754;11.508;2022-07-24T14:01:23;32.40;71.50
21544;DHT22;10933;50.754;11.508;2022-07-24T14:03:49;33.00;72.00
21544;DHT22;10933;50.754;11.508;2022-07-24T14:06:15;34.70;72.50
21544;DHT22;10933;50.754;11.508;2022-07-24T14:08:41;36.00;70.50
21544;DHT22;10933;50.754;11.508;2022-07-24T14:11:08;33.70;69.10
21544;DHT22;10933;50.754;11.508;2022-07-24T14:13:35;31.30;73.40
21544;DHT22;10933;50.754;11.508;2022-07-24T14:16:01;31.20;74.90
21544;DHT22;10933;50.754;11.508;2022-07-24T14:18:28;31.20;76.30
21544;DHT22;10933;50.754;11.508;2022-07-24T14:20:53;31.70;76.10
21544;DHT22;10933;50.754;11.508;2022-07-24T14:23:19;31.70;76.00
21544;DHT22;10933;50.754;11.508;2022-07-24T14:25:45;33.40;74.20
21544;DHT22;10933;50.754;11.508;2022-07-24T14:28:12;31.70;74.60
21544;DHT22;10933;50.754;11.508;2022-07-24T14:30:38;31.60;75.90
21544;DHT22;10933;50.754;11.508;2022-07-24T14:33:04;34.20;74.70
21544;DHT22;10933;50.754;11.508;2022-07-24T14:35:30;30.90;75.80
21544;DHT22;10933;50.754;11.508;2022-07-24T14:37:57;30.90;77.00
21544;DHT22;10933;50.754;11.508;2022-07-24T14:40:23;31.20;76.10
21544;DHT22;10933;50.754;11.508;2022-07-24T14:42:50;31.10;76.20
21544;DHT22;10933;50.754;11.508;2022-07-24T14:45:16;31.30;75.30
21544;DHT22;10933;50.754;11.508;2022-07-24T14:47:42;32.20;76.50
21544;DHT22;10933;50.754;11.508;2022-07-24T14:50:08;31.20;75.10
21544;DHT22;10933;50.754;11.508;2022-07-24T14:52:37;30.80;76.20
21544;DHT22;10933;50.754;11.508;2022-07-24T14:55:05;31.00;77.30
21544;DHT22;10933;50.754;11.508;2022-07-24T14:57:32;30.90;76.20
21544;DHT22;10933;50.754;11.508;2022-07-24T14:59:58;30.90;76.40
21544;DHT22;10933;50.754;11.508;2022-07-24T15:02:23;31.20;75.90
21544;DHT22;10933;50.754;11.508;2022-07-24T15:04:49;30.70;75.40
21544;DHT22;10933;50.754;11.508;2022-07-24T15:07:15;31.00;75.60
21544;DHT22;10933;50.754;11.508;2022-07-24T15:09:42;30.90;75.50
21544;DHT22;10933;50.754;11.508;2022-07-24T15:12:07;31.20;75.50
21544;DHT22;10933;50.754;11.508;2022-07-24T15:14:33;31.20;76.70
21544;DHT22;10933;50.754;11.508;2022-07-24T15:16:59;30.70;75.20
21544;DHT22;10933;50.754;11.508;2022-07-24T15:19:26;32.00;74.70
21544;DHT22;10933;50.754;11.508;2022-07-24T15:21:51;32.90;74.10
21544;DHT22;10933;50.754;11.508;2022-07-24T15:24:17;32.10;73.80
21544;DHT22;10933;50.754;11.508;2022-07-24T15:26:43;31.10;74.90
21544;DHT22;10933;50.754;11.508;2022-07-24T15:29:09;30.70;74.90
21544;DHT22;10933;50.754;11.508;2022-07-24T15:31:35;30.90;75.90
21544;DHT22;10933;50.754;11.508;2022-07-24T15:34:01;28.80;74.50
21544;DHT22;10933;50.754;11.508;2022-07-24T15:36:26;31.20;75.20
21544;DHT22;10933;50.754;11.508;2022-07-24T15:38:52;30.90;76.00
21544;DHT22;10933;50.754;11.508;2022-07-24T15:41:19;30.70;76.80
21544;DHT22;10933;50.754;11.508;2022-07-24T15:43:45;30.70;77.00
21544;DHT22;10933;50.754;11.508;2022-07-24T15:46:10;30.40;77.50
21544;DHT22;10933;50.754;11.508;2022-07-24T15:48:36;30.30;76.10
21544;DHT22;10933;50.754;11.508;2022-07-24T15:51:02;30.60;77.00
21544;DHT22;10933;50.754;11.508;2022-07-24T15:53:28;30.70;76.80
21544;DHT22;10933;50.754;11.508;2022-07-24T15:55:53;30.30;75.20